Huvudsida
METAR-TAF:

METAR-TAF

Flygplatser :

Honolulu International Airport

Honolulu, Hawaii, USA

latitud: 21-19-39N, longitud: 157-56-35W, höjd: 3 m

Aktuellt väderrapport

Denna rapport gjordes för 44 minuter sedan, klockan 20:53 UTC
Vind 9 kt från nord/nordost
Temperatur 26°C
Fuktighet 45%
Tryck 1022 hPa
Sikt: 16.1 km
Få moln på en höjd av 2500 ft
Brutna moln på en höjd av 5000 ft

METAR: PHNL 192053Z 02009KT 10SM FEW025 BKN050 26/13 A3017 RMK AO2 SLP216 T02560133 51019

Tid: 11:37 (21:37 UTC)

Väderprognos

Denna rapport gjordes för 31 minuter sedan, klockan 21:06 UTC
Prognos gäller från 19 kl. 21 UTC till 20 kl. 24 UTC
Vind 15 kt från ost/nordost i byarna ända upp till 23 kt
Sikt: 10 km
Få moln på en höjd av 2500 ft
Brutna moln på en höjd av 4500 ft
Från 20 kl. 0600 UTC
Vind 10 kt från nordost
Sikt: 10 km
Få moln på en höjd av 2500 ft
Spridda moln på en höjd av 4500 ft

TAF: PHNL 192106Z 1921/2024 06015G23KT P6SM FEW025 BKN045 FM200600 05010KT P6SM FEW025 SCT045

Aktuella väderrapporter och prognoser från 4000 flygplatser (METAR- och TAF-rapporter).

De tillgängliga stationerna syns som gula och röda prickar på kartan.

För musen över prickarna för att se namnen på stationerna.

Klicka sedan för att få väderrapporter och prognoser.

För att ändra kartan: Klicka på de gröna knapparna med ett svart kors på för att zooma in; den gröna knappen med ett streck på för att zooma ut; eller på de gröna pilarna för angränsande kartor.


METAR-TAF: